Impacts METAR Board INFO
IDs:

KSTL - St Louis/Lambert Int, MO, US

Updated at: 1535 UTC 25 Feb 2018
Potential Impact None Slight Moderate High
Time25/03Z 25/04Z 25/05Z 25/06Z 25/07Z 25/08Z 25/09Z 25/10Z 25/11Z 25/12Z 25/13Z 25/14Z 25/15Z
VIS7 6 10 10 10 10 10 10 10 10 10 10 10
CIG14 12 27 30 28 -- -- -- -- -- -- -- --
CoverOVCOVCOVCOVCBKNSCTFEWCLRCLRCLRSCTFEWFEW
FltCatMVFRMVFRMVFRMVFRMVFRVFRVFRVFRVFRVFRVFRVFRVFR
WX-DZ-RA BR----------------------
WDir250280280280280290260250250250250240260
WSpd20 18 24 24 18 9 12 11 11 12 5 9 11
WGst25 31 32 30 26 -- -- -- -- -- -- -- --
Raw hourly METARs
KSTL 250303Z 25020G25KT 7SM -DZ SCT007 OVC014 12/12 A2966 RMK AO2 P0000 T01220117
KSTL 250351Z 28018G31KT 6SM -RA BR BKN012 OVC017 09/08 A2972 RMK AO2 PK WND 28033/0334 DZE05RAB05 PRESRR SLP069 P0000 T00940083
KSTL 250451Z 28024G32KT 10SM SCT020 BKN027 OVC034 08/04 A2980 RMK AO2 PK WND 28032/0450 RAE35 SLP094 P0000 T00780044
KSTL 250551Z 28024G30KT 10SM BKN030 OVC250 06/02 A2986 RMK AO2 PK WND 27037/0457 SLP114 60001 T00560017 10128 20056 401280039 51069
KSTL 250651Z 28018G26KT 10SM BKN028 05/02 A2989 RMK AO2 PK WND 29029/0616 SLP126 T00500017
KSTL 250802Z 29009KT 10SM SCT029 04/01 A2992 RMK AO2 T00390011
KSTL 250851Z 26012KT 10SM FEW030 03/M01 A2994 RMK AO2 SLP142 T00331006 51026
KSTL 250951Z 25011KT 10SM CLR 02/M01 A2995 RMK AO2 SLP147 T00221006
KSTL 251051Z 25011KT 10SM CLR 02/M01 A2997 RMK AO2 SLP152 T00171011
KSTL 251151Z 25012KT 10SM CLR 02/M01 A2998 RMK AO2 SLP157 70058 T00171011 10056 20017 53015
KSTL 251251Z 25005KT 10SM SCT250 01/M01 A3001 RMK AO2 SLP164 T00111011
KSTL 251351Z 24009KT 10SM FEW250 02/M01 A3005 RMK AO2 SLP179 T00221006
KSTL 251451Z 26011KT 10SM FEW035 FEW250 04/M01 A3007 RMK AO2 SLP184 T00391011 51028